sensor_id;sensor_type;location;lat;lon;timestamp;P1;durP1;ratioP1;P2;durP2;ratioP2
5127;SDS011;2582;48.770;9.190;2022-10-23T00:01:22;5.07;;;3.20;;
5127;SDS011;2582;48.770;9.190;2022-10-23T00:03:54;7.40;;;3.40;;
5127;SDS011;2582;48.770;9.190;2022-10-23T00:06:31;5.70;;;3.30;;
5127;SDS011;2582;48.770;9.190;2022-10-23T00:08:58;9.40;;;3.50;;
5127;SDS011;2582;48.770;9.190;2022-10-23T00:11:25;3.30;;;2.93;;
5127;SDS011;2582;48.770;9.190;2022-10-23T00:13:53;8.50;;;3.90;;
5127;SDS011;2582;48.770;9.190;2022-10-23T00:16:21;7.40;;;4.10;;
5127;SDS011;2582;48.770;9.190;2022-10-23T00:18:46;6.30;;;3.90;;
5127;SDS011;2582;48.770;9.190;2022-10-23T00:21:13;8.73;;;3.40;;
5127;SDS011;2582;48.770;9.190;2022-10-23T00:23:39;7.37;;;3.40;;
5127;SDS011;2582;48.770;9.190;2022-10-23T00:26:06;5.67;;;3.13;;
5127;SDS011;2582;48.770;9.190;2022-10-23T00:28:32;5.40;;;4.10;;
5127;SDS011;2582;48.770;9.190;2022-10-23T00:31:02;7.03;;;3.27;;
5127;SDS011;2582;48.770;9.190;2022-10-23T00:33:29;5.77;;;3.53;;
5127;SDS011;2582;48.770;9.190;2022-10-23T00:35:56;5.90;;;3.20;;
5127;SDS011;2582;48.770;9.190;2022-10-23T00:38:21;3.77;;;3.47;;
5127;SDS011;2582;48.770;9.190;2022-10-23T00:40:47;7.73;;;4.20;;
5127;SDS011;2582;48.770;9.190;2022-10-23T00:43:16;8.67;;;3.63;;
5127;SDS011;2582;48.770;9.190;2022-10-23T00:45:47;5.20;;;4.00;;
5127;SDS011;2582;48.770;9.190;2022-10-23T00:48:13;8.70;;;3.17;;
5127;SDS011;2582;48.770;9.190;2022-10-23T00:50:39;7.63;;;3.30;;
5127;SDS011;2582;48.770;9.190;2022-10-23T00:53:06;7.00;;;3.80;;
5127;SDS011;2582;48.770;9.190;2022-10-23T00:55:33;6.07;;;3.13;;
5127;SDS011;2582;48.770;9.190;2022-10-23T00:58:02;4.43;;;3.70;;
5127;SDS011;2582;48.770;9.190;2022-10-23T01:00:29;7.80;;;3.70;;
5127;SDS011;2582;48.770;9.190;2022-10-23T01:03:05;6.37;;;3.70;;
5127;SDS011;2582;48.770;9.190;2022-10-23T01:05:32;7.73;;;3.23;;
5127;SDS011;2582;48.770;9.190;2022-10-23T01:08:06;14.23;;;5.00;;
5127;SDS011;2582;48.770;9.190;2022-10-23T01:10:41;10.10;;;4.13;;
5127;SDS011;2582;48.770;9.190;2022-10-23T01:13:12;7.13;;;3.63;;
5127;SDS011;2582;48.770;9.190;2022-10-23T01:15:51;4.77;;;3.50;;
5127;SDS011;2582;48.770;9.190;2022-10-23T01:18:26;6.07;;;3.90;;
5127;SDS011;2582;48.770;9.190;2022-10-23T01:21:04;6.30;;;3.57;;
5127;SDS011;2582;48.770;9.190;2022-10-23T01:23:46;9.80;;;3.80;;
5127;SDS011;2582;48.770;9.190;2022-10-23T01:34:29;5.93;;;3.90;;
5127;SDS011;2582;48.770;9.190;2022-10-23T01:37:08;6.10;;;4.40;;
5127;SDS011;2582;48.770;9.190;2022-10-23T01:39:38;11.17;;;3.80;;
5127;SDS011;2582;48.770;9.190;2022-10-23T01:42:09;8.13;;;3.30;;
5127;SDS011;2582;48.770;9.190;2022-10-23T01:44:38;6.27;;;4.27;;
5127;SDS011;2582;48.770;9.190;2022-10-23T01:47:09;6.90;;;4.53;;
5127;SDS011;2582;48.770;9.190;2022-10-23T01:49:37;5.27;;;3.30;;
5127;SDS011;2582;48.770;9.190;2022-10-23T01:52:06;11.30;;;4.47;;
5127;SDS011;2582;48.770;9.190;2022-10-23T01:54:36;7.77;;;3.63;;
5127;SDS011;2582;48.770;9.190;2022-10-23T01:57:07;7.60;;;3.90;;
5127;SDS011;2582;48.770;9.190;2022-10-23T01:59:37;7.73;;;3.63;;
5127;SDS011;2582;48.770;9.190;2022-10-23T02:02:08;3.67;;;3.03;;
5127;SDS011;2582;48.770;9.190;2022-10-23T02:04:37;7.60;;;3.60;;
5127;SDS011;2582;48.770;9.190;2022-10-23T02:07:06;4.33;;;3.27;;
5127;SDS011;2582;48.770;9.190;2022-10-23T02:09:31;4.27;;;3.87;;
5127;SDS011;2582;48.770;9.190;2022-10-23T02:11:59;8.80;;;4.33;;
5127;SDS011;2582;48.770;9.190;2022-10-23T02:15:05;5.43;;;3.70;;
5127;SDS011;2582;48.770;9.190;2022-10-23T02:17:41;7.50;;;3.90;;
5127;SDS011;2582;48.770;9.190;2022-10-23T02:25:40;3.10;;;2.67;;
5127;SDS011;2582;48.770;9.190;2022-10-23T02:28:15;6.37;;;3.40;;
5127;SDS011;2582;48.770;9.190;2022-10-23T02:30:44;7.40;;;3.00;;
5127;SDS011;2582;48.770;9.190;2022-10-23T02:33:13;7.53;;;3.40;;
5127;SDS011;2582;48.770;9.190;2022-10-23T02:35:39;7.60;;;3.27;;
5127;SDS011;2582;48.770;9.190;2022-10-23T02:40:57;4.60;;;2.57;;
5127;SDS011;2582;48.770;9.190;2022-10-23T02:43:35;8.93;;;2.80;;
5127;SDS011;2582;48.770;9.190;2022-10-23T02:49:05;4.60;;;2.87;;
5127;SDS011;2582;48.770;9.190;2022-10-23T02:51:52;3.33;;;2.43;;
5127;SDS011;2582;48.770;9.190;2022-10-23T02:54:44;3.00;;;2.13;;
5127;SDS011;2582;48.770;9.190;2022-10-23T02:57:29;5.13;;;3.30;;
5127;SDS011;2582;48.770;9.190;2022-10-23T03:02:31;3.20;;;2.00;;
5127;SDS011;2582;48.770;9.190;2022-10-23T03:04:59;3.90;;;2.30;;
5127;SDS011;2582;48.770;9.190;2022-10-23T03:07:26;5.33;;;2.70;;
5127;SDS011;2582;48.770;9.190;2022-10-23T03:09:52;3.43;;;2.13;;
5127;SDS011;2582;48.770;9.190;2022-10-23T03:12:18;4.20;;;2.40;;
5127;SDS011;2582;48.770;9.190;2022-10-23T03:14:43;5.20;;;2.13;;
5127;SDS011;2582;48.770;9.190;2022-10-23T03:17:09;2.70;;;1.90;;
5127;SDS011;2582;48.770;9.190;2022-10-23T03:19:34;6.30;;;2.60;;
5127;SDS011;2582;48.770;9.190;2022-10-23T03:22:00;2.43;;;2.07;;
5127;SDS011;2582;48.770;9.190;2022-10-23T03:24:25;7.93;;;3.07;;
5127;SDS011;2582;48.770;9.190;2022-10-23T03:26:51;6.57;;;2.57;;
5127;SDS011;2582;48.770;9.190;2022-10-23T03:29:16;2.40;;;2.20;;
5127;SDS011;2582;48.770;9.190;2022-10-23T03:31:42;4.37;;;2.73;;
5127;SDS011;2582;48.770;9.190;2022-10-23T03:34:08;4.50;;;2.53;;
5127;SDS011;2582;48.770;9.190;2022-10-23T03:36:35;6.40;;;2.80;;
5127;SDS011;2582;48.770;9.190;2022-10-23T03:39:01;5.97;;;2.37;;
5127;SDS011;2582;48.770;9.190;2022-10-23T03:41:28;4.30;;;1.93;;
5127;SDS011;2582;48.770;9.190;2022-10-23T03:43:54;6.30;;;2.50;;
5127;SDS011;2582;48.770;9.190;2022-10-23T03:46:19;4.83;;;2.53;;
5127;SDS011;2582;48.770;9.190;2022-10-23T03:48:45;5.07;;;2.57;;
5127;SDS011;2582;48.770;9.190;2022-10-23T03:51:10;6.37;;;2.80;;
5127;SDS011;2582;48.770;9.190;2022-10-23T03:53:36;5.07;;;2.37;;
5127;SDS011;2582;48.770;9.190;2022-10-23T03:56:01;5.43;;;2.53;;
5127;SDS011;2582;48.770;9.190;2022-10-23T03:58:27;3.57;;;2.53;;
5127;SDS011;2582;48.770;9.190;2022-10-23T04:00:53;3.70;;;3.40;;
5127;SDS011;2582;48.770;9.190;2022-10-23T04:03:19;6.87;;;4.53;;
5127;SDS011;2582;48.770;9.190;2022-10-23T04:05:44;7.50;;;5.77;;
5127;SDS011;2582;48.770;9.190;2022-10-23T04:08:10;6.97;;;6.13;;
5127;SDS011;2582;48.770;9.190;2022-10-23T04:10:36;8.60;;;6.50;;
5127;SDS011;2582;48.770;9.190;2022-10-23T04:13:02;10.00;;;7.93;;
5127;SDS011;2582;48.770;9.190;2022-10-23T04:15:27;8.03;;;6.27;;
5127;SDS011;2582;48.770;9.190;2022-10-23T04:17:53;7.70;;;6.73;;
5127;SDS011;2582;48.770;9.190;2022-10-23T04:20:18;24.27;;;20.67;;
5127;SDS011;2582;48.770;9.190;2022-10-23T04:22:44;20.40;;;16.00;;
5127;SDS011;2582;48.770;9.190;2022-10-23T04:25:09;16.03;;;12.13;;
5127;SDS011;2582;48.770;9.190;2022-10-23T04:27:35;15.60;;;11.10;;
5127;SDS011;2582;48.770;9.190;2022-10-23T04:30:01;14.03;;;10.97;;
5127;SDS011;2582;48.770;9.190;2022-10-23T04:32:27;19.50;;;12.33;;
5127;SDS011;2582;48.770;9.190;2022-10-23T04:34:53;12.43;;;10.97;;
5127;SDS011;2582;48.770;9.190;2022-10-23T04:37:18;9.40;;;8.40;;
5127;SDS011;2582;48.770;9.190;2022-10-23T04:39:44;8.47;;;7.20;;
5127;SDS011;2582;48.770;9.190;2022-10-23T04:42:09;12.43;;;6.20;;
5127;SDS011;2582;48.770;9.190;2022-10-23T04:44:35;6.90;;;4.73;;
5127;SDS011;2582;48.770;9.190;2022-10-23T04:47:00;4.50;;;4.10;;
5127;SDS011;2582;48.770;9.190;2022-10-23T04:49:26;11.00;;;9.20;;
5127;SDS011;2582;48.770;9.190;2022-10-23T04:51:51;5.80;;;5.20;;
5127;SDS011;2582;48.770;9.190;2022-10-23T04:54:17;5.57;;;4.37;;
5127;SDS011;2582;48.770;9.190;2022-10-23T04:56:43;11.13;;;5.80;;
5127;SDS011;2582;48.770;9.190;2022-10-23T04:59:08;8.30;;;5.07;;
5127;SDS011;2582;48.770;9.190;2022-10-23T05:01:34;7.43;;;6.73;;
5127;SDS011;2582;48.770;9.190;2022-10-23T05:04:00;11.33;;;7.73;;
5127;SDS011;2582;48.770;9.190;2022-10-23T05:06:25;8.23;;;7.00;;
5127;SDS011;2582;48.770;9.190;2022-10-23T05:08:51;12.60;;;5.60;;
5127;SDS011;2582;48.770;9.190;2022-10-23T05:11:17;5.17;;;4.10;;
5127;SDS011;2582;48.770;9.190;2022-10-23T05:13:42;7.80;;;4.87;;
5127;SDS011;2582;48.770;9.190;2022-10-23T05:16:08;8.40;;;5.60;;
5127;SDS011;2582;48.770;9.190;2022-10-23T05:18:35;7.63;;;5.47;;
5127;SDS011;2582;48.770;9.190;2022-10-23T05:21:09;7.30;;;5.60;;
5127;SDS011;2582;48.770;9.190;2022-10-23T05:23:40;9.73;;;4.03;;
5127;SDS011;2582;48.770;9.190;2022-10-23T05:26:07;5.90;;;3.33;;
5127;SDS011;2582;48.770;9.190;2022-10-23T05:28:33;9.67;;;3.63;;
5127;SDS011;2582;48.770;9.190;2022-10-23T05:30:59;7.17;;;4.60;;
5127;SDS011;2582;48.770;9.190;2022-10-23T05:33:26;6.73;;;4.27;;
5127;SDS011;2582;48.770;9.190;2022-10-23T05:35:53;5.93;;;3.90;;
5127;SDS011;2582;48.770;9.190;2022-10-23T05:38:19;6.23;;;3.27;;
5127;SDS011;2582;48.770;9.190;2022-10-23T05:40:45;5.40;;;4.73;;
5127;SDS011;2582;48.770;9.190;2022-10-23T05:43:10;11.70;;;4.37;;
5127;SDS011;2582;48.770;9.190;2022-10-23T05:45:36;7.50;;;5.03;;
5127;SDS011;2582;48.770;9.190;2022-10-23T05:48:01;7.80;;;6.57;;
5127;SDS011;2582;48.770;9.190;2022-10-23T05:50:27;5.70;;;5.20;;
5127;SDS011;2582;48.770;9.190;2022-10-23T05:52:53;5.60;;;4.77;;
5127;SDS011;2582;48.770;9.190;2022-10-23T05:55:18;11.00;;;6.60;;
5127;SDS011;2582;48.770;9.190;2022-10-23T05:57:44;13.63;;;5.10;;
5127;SDS011;2582;48.770;9.190;2022-10-23T06:00:10;5.40;;;4.20;;
5127;SDS011;2582;48.770;9.190;2022-10-23T06:02:36;6.23;;;4.03;;
5127;SDS011;2582;48.770;9.190;2022-10-23T06:05:02;6.37;;;4.80;;
5127;SDS011;2582;48.770;9.190;2022-10-23T06:07:28;10.93;;;4.77;;
5127;SDS011;2582;48.770;9.190;2022-10-23T06:09:54;4.57;;;4.03;;
5127;SDS011;2582;48.770;9.190;2022-10-23T06:12:20;5.93;;;4.17;;
5127;SDS011;2582;48.770;9.190;2022-10-23T06:14:46;4.80;;;3.70;;
5127;SDS011;2582;48.770;9.190;2022-10-23T06:17:12;7.23;;;6.17;;
5127;SDS011;2582;48.770;9.190;2022-10-23T06:19:37;6.13;;;4.13;;
5127;SDS011;2582;48.770;9.190;2022-10-23T06:22:03;5.80;;;4.43;;
5127;SDS011;2582;48.770;9.190;2022-10-23T06:24:29;7.83;;;4.90;;
5127;SDS011;2582;48.770;9.190;2022-10-23T06:26:55;6.87;;;3.53;;
5127;SDS011;2582;48.770;9.190;2022-10-23T06:29:20;7.97;;;4.20;;
5127;SDS011;2582;48.770;9.190;2022-10-23T06:31:46;4.50;;;3.50;;
5127;SDS011;2582;48.770;9.190;2022-10-23T06:34:12;5.80;;;3.20;;
5127;SDS011;2582;48.770;9.190;2022-10-23T06:36:38;6.30;;;4.10;;
5127;SDS011;2582;48.770;9.190;2022-10-23T06:39:04;4.60;;;3.50;;
5127;SDS011;2582;48.770;9.190;2022-10-23T06:41:29;6.27;;;3.87;;
5127;SDS011;2582;48.770;9.190;2022-10-23T06:43:55;6.77;;;2.70;;
5127;SDS011;2582;48.770;9.190;2022-10-23T06:46:21;3.10;;;2.30;;
5127;SDS011;2582;48.770;9.190;2022-10-23T06:48:47;8.23;;;2.77;;
5127;SDS011;2582;48.770;9.190;2022-10-23T06:51:14;2.80;;;2.17;;
5127;SDS011;2582;48.770;9.190;2022-10-23T06:53:41;5.40;;;3.10;;
5127;SDS011;2582;48.770;9.190;2022-10-23T06:56:07;12.37;;;3.20;;
5127;SDS011;2582;48.770;9.190;2022-10-23T06:58:34;5.00;;;2.40;;
5127;SDS011;2582;48.770;9.190;2022-10-23T07:01:02;6.90;;;3.17;;
5127;SDS011;2582;48.770;9.190;2022-10-23T07:03:29;4.40;;;2.50;;
5127;SDS011;2582;48.770;9.190;2022-10-23T07:05:54;4.23;;;2.67;;
5127;SDS011;2582;48.770;9.190;2022-10-23T07:08:20;5.30;;;2.80;;
5127;SDS011;2582;48.770;9.190;2022-10-23T07:10:46;3.70;;;2.20;;
5127;SDS011;2582;48.770;9.190;2022-10-23T07:13:12;6.10;;;2.53;;
5127;SDS011;2582;48.770;9.190;2022-10-23T07:15:39;8.23;;;2.80;;
5127;SDS011;2582;48.770;9.190;2022-10-23T07:18:05;3.63;;;2.30;;
5127;SDS011;2582;48.770;9.190;2022-10-23T07:20:31;6.43;;;2.93;;
5127;SDS011;2582;48.770;9.190;2022-10-23T07:22:56;3.17;;;2.43;;
5127;SDS011;2582;48.770;9.190;2022-10-23T07:25:25;5.93;;;3.03;;
5127;SDS011;2582;48.770;9.190;2022-10-23T07:27:51;2.67;;;2.20;;
5127;SDS011;2582;48.770;9.190;2022-10-23T07:30:18;3.80;;;2.27;;
5127;SDS011;2582;48.770;9.190;2022-10-23T07:32:44;4.50;;;2.17;;
5127;SDS011;2582;48.770;9.190;2022-10-23T07:35:10;3.50;;;2.30;;
5127;SDS011;2582;48.770;9.190;2022-10-23T07:37:36;6.00;;;2.53;;
5127;SDS011;2582;48.770;9.190;2022-10-23T07:40:05;2.60;;;2.30;;
5127;SDS011;2582;48.770;9.190;2022-10-23T07:42:31;11.20;;;2.67;;
5127;SDS011;2582;48.770;9.190;2022-10-23T07:44:57;4.40;;;2.60;;
5127;SDS011;2582;48.770;9.190;2022-10-23T07:47:22;4.60;;;2.33;;
5127;SDS011;2582;48.770;9.190;2022-10-23T07:49:48;3.60;;;2.93;;
5127;SDS011;2582;48.770;9.190;2022-10-23T07:52:13;4.73;;;2.53;;
5127;SDS011;2582;48.770;9.190;2022-10-23T07:54:39;3.50;;;2.23;;
5127;SDS011;2582;48.770;9.190;2022-10-23T07:57:04;4.60;;;2.20;;
5127;SDS011;2582;48.770;9.190;2022-10-23T07:59:31;4.23;;;2.07;;
5127;SDS011;2582;48.770;9.190;2022-10-23T08:01:58;7.23;;;2.53;;
5127;SDS011;2582;48.770;9.190;2022-10-23T08:04:23;2.03;;;1.93;;
5127;SDS011;2582;48.770;9.190;2022-10-23T08:06:49;3.87;;;2.07;;
5127;SDS011;2582;48.770;9.190;2022-10-23T08:09:15;3.57;;;1.90;;
5127;SDS011;2582;48.770;9.190;2022-10-23T08:11:40;5.00;;;2.63;;
5127;SDS011;2582;48.770;9.190;2022-10-23T08:14:06;6.90;;;1.67;;
5127;SDS011;2582;48.770;9.190;2022-10-23T08:16:33;2.23;;;2.00;;
5127;SDS011;2582;48.770;9.190;2022-10-23T08:19:00;4.10;;;1.77;;
5127;SDS011;2582;48.770;9.190;2022-10-23T08:21:27;3.00;;;1.40;;
5127;SDS011;2582;48.770;9.190;2022-10-23T08:23:53;2.80;;;2.23;;
5127;SDS011;2582;48.770;9.190;2022-10-23T08:26:20;2.57;;;1.90;;
5127;SDS011;2582;48.770;9.190;2022-10-23T08:28:46;3.17;;;2.00;;
5127;SDS011;2582;48.770;9.190;2022-10-23T08:31:13;3.53;;;2.30;;
5127;SDS011;2582;48.770;9.190;2022-10-23T08:33:40;3.83;;;2.40;;
5127;SDS011;2582;48.770;9.190;2022-10-23T08:36:14;3.13;;;2.80;;
5127;SDS011;2582;48.770;9.190;2022-10-23T08:38:44;3.40;;;2.40;;
5127;SDS011;2582;48.770;9.190;2022-10-23T08:41:13;3.57;;;2.50;;
5127;SDS011;2582;48.770;9.190;2022-10-23T08:43:45;2.07;;;1.87;;
5127;SDS011;2582;48.770;9.190;2022-10-23T08:46:14;2.60;;;1.90;;
5127;SDS011;2582;48.770;9.190;2022-10-23T08:48:44;3.80;;;2.87;;
5127;SDS011;2582;48.770;9.190;2022-10-23T08:56:46;4.20;;;2.27;;
5127;SDS011;2582;48.770;9.190;2022-10-23T08:59:23;3.00;;;2.07;;
5127;SDS011;2582;48.770;9.190;2022-10-23T09:01:57;3.43;;;2.03;;
5127;SDS011;2582;48.770;9.190;2022-10-23T09:04:40;3.53;;;1.97;;
5127;SDS011;2582;48.770;9.190;2022-10-23T09:12:27;4.57;;;3.37;;
5127;SDS011;2582;48.770;9.190;2022-10-23T09:15:02;4.30;;;3.30;;
5127;SDS011;2582;48.770;9.190;2022-10-23T09:17:39;4.87;;;3.80;;
5127;SDS011;2582;48.770;9.190;2022-10-23T09:20:17;4.53;;;3.40;;
5127;SDS011;2582;48.770;9.190;2022-10-23T09:22:43;3.33;;;3.03;;
5127;SDS011;2582;48.770;9.190;2022-10-23T09:25:11;4.00;;;3.30;;
5127;SDS011;2582;48.770;9.190;2022-10-23T09:27:49;3.90;;;2.90;;
5127;SDS011;2582;48.770;9.190;2022-10-23T09:30:50;4.60;;;2.60;;
5127;SDS011;2582;48.770;9.190;2022-10-23T09:33:14;5.87;;;3.10;;
5127;SDS011;2582;48.770;9.190;2022-10-23T09:35:51;4.33;;;3.40;;
5127;SDS011;2582;48.770;9.190;2022-10-23T09:38:31;3.40;;;2.37;;
5127;SDS011;2582;48.770;9.190;2022-10-23T09:41:01;3.23;;;2.60;;
5127;SDS011;2582;48.770;9.190;2022-10-23T09:43:37;4.23;;;2.43;;
5127;SDS011;2582;48.770;9.190;2022-10-23T09:46:04;6.57;;;2.97;;
5127;SDS011;2582;48.770;9.190;2022-10-23T09:48:30;4.27;;;2.80;;
5127;SDS011;2582;48.770;9.190;2022-10-23T09:50:57;4.23;;;2.77;;
5127;SDS011;2582;48.770;9.190;2022-10-23T09:55:57;3.50;;;2.57;;
5127;SDS011;2582;48.770;9.190;2022-10-23T09:58:29;2.73;;;2.50;;
5127;SDS011;2582;48.770;9.190;2022-10-23T10:01:01;2.83;;;1.93;;
5127;SDS011;2582;48.770;9.190;2022-10-23T10:03:27;3.50;;;2.03;;
5127;SDS011;2582;48.770;9.190;2022-10-23T10:05:55;3.03;;;1.97;;
5127;SDS011;2582;48.770;9.190;2022-10-23T10:10:59;3.07;;;1.70;;
5127;SDS011;2582;48.770;9.190;2022-10-23T10:15:57;1.87;;;1.70;;
5127;SDS011;2582;48.770;9.190;2022-10-23T10:21:22;6.67;;;2.40;;
5127;SDS011;2582;48.770;9.190;2022-10-23T10:23:58;4.57;;;2.80;;
5127;SDS011;2582;48.770;9.190;2022-10-23T10:26:45;3.93;;;2.60;;
5127;SDS011;2582;48.770;9.190;2022-10-23T10:29:37;5.60;;;3.07;;
5127;SDS011;2582;48.770;9.190;2022-10-23T10:40:29;5.10;;;2.40;;
5127;SDS011;2582;48.770;9.190;2022-10-23T10:48:07;6.53;;;2.50;;
5127;SDS011;2582;48.770;9.190;2022-10-23T10:50:39;4.90;;;1.87;;
5127;SDS011;2582;48.770;9.190;2022-10-23T10:53:38;3.47;;;2.10;;
5127;SDS011;2582;48.770;9.190;2022-10-23T10:56:16;3.10;;;2.23;;
5127;SDS011;2582;48.770;9.190;2022-10-23T10:58:47;1.97;;;1.37;;
5127;SDS011;2582;48.770;9.190;2022-10-23T11:01:24;1.30;;;1.10;;
5127;SDS011;2582;48.770;9.190;2022-10-23T11:04:00;1.40;;;1.30;;
5127;SDS011;2582;48.770;9.190;2022-10-23T11:06:42;1.80;;;1.10;;
5127;SDS011;2582;48.770;9.190;2022-10-23T11:09:28;3.60;;;1.93;;
5127;SDS011;2582;48.770;9.190;2022-10-23T11:11:54;6.57;;;2.13;;
5127;SDS011;2582;48.770;9.190;2022-10-23T11:14:21;3.47;;;1.30;;
5127;SDS011;2582;48.770;9.190;2022-10-23T11:16:49;1.60;;;1.17;;
5127;SDS011;2582;48.770;9.190;2022-10-23T11:19:40;2.30;;;1.10;;
5127;SDS011;2582;48.770;9.190;2022-10-23T11:25:25;1.67;;;1.00;;
5127;SDS011;2582;48.770;9.190;2022-10-23T11:28:19;1.27;;;1.10;;
5127;SDS011;2582;48.770;9.190;2022-10-23T11:31:07;1.47;;;1.00;;
5127;SDS011;2582;48.770;9.190;2022-10-23T11:34:01;2.10;;;1.30;;
5127;SDS011;2582;48.770;9.190;2022-10-23T11:39:23;3.20;;;2.63;;
5127;SDS011;2582;48.770;9.190;2022-10-23T11:41:55;5.37;;;2.50;;
5127;SDS011;2582;48.770;9.190;2022-10-23T11:47:27;3.03;;;2.00;;
5127;SDS011;2582;48.770;9.190;2022-10-23T11:52:31;3.07;;;2.77;;
5127;SDS011;2582;48.770;9.190;2022-10-23T11:55:02;4.47;;;2.57;;
5127;SDS011;2582;48.770;9.190;2022-10-23T11:57:41;4.13;;;2.40;;
5127;SDS011;2582;48.770;9.190;2022-10-23T12:00:21;3.60;;;3.17;;
5127;SDS011;2582;48.770;9.190;2022-10-23T12:02:51;3.90;;;2.67;;
5127;SDS011;2582;48.770;9.190;2022-10-23T12:08:02;3.20;;;2.00;;
5127;SDS011;2582;48.770;9.190;2022-10-23T12:10:42;2.73;;;2.00;;
5127;SDS011;2582;48.770;9.190;2022-10-23T12:16:11;4.73;;;2.30;;
5127;SDS011;2582;48.770;9.190;2022-10-23T12:18:51;3.93;;;2.23;;
5127;SDS011;2582;48.770;9.190;2022-10-23T12:21:19;3.80;;;2.10;;
5127;SDS011;2582;48.770;9.190;2022-10-23T12:26:36;3.50;;;2.40;;
5127;SDS011;2582;48.770;9.190;2022-10-23T12:40:13;3.00;;;2.20;;
5127;SDS011;2582;48.770;9.190;2022-10-23T12:42:38;3.80;;;2.10;;
5127;SDS011;2582;48.770;9.190;2022-10-23T12:45:14;3.53;;;2.90;;
5127;SDS011;2582;48.770;9.190;2022-10-23T12:47:49;4.10;;;2.47;;
5127;SDS011;2582;48.770;9.190;2022-10-23T12:50:22;3.70;;;2.90;;
5127;SDS011;2582;48.770;9.190;2022-10-23T12:52:51;2.80;;;2.50;;
5127;SDS011;2582;48.770;9.190;2022-10-23T12:55:18;2.97;;;2.57;;
5127;SDS011;2582;48.770;9.190;2022-10-23T12:57:44;3.50;;;3.20;;
5127;SDS011;2582;48.770;9.190;2022-10-23T13:00:14;2.43;;;2.23;;
5127;SDS011;2582;48.770;9.190;2022-10-23T13:02:42;3.20;;;1.90;;
5127;SDS011;2582;48.770;9.190;2022-10-23T13:05:09;2.37;;;2.07;;
5127;SDS011;2582;48.770;9.190;2022-10-23T13:07:42;2.87;;;1.93;;
5127;SDS011;2582;48.770;9.190;2022-10-23T13:10:12;5.20;;;2.43;;
5127;SDS011;2582;48.770;9.190;2022-10-23T13:12:39;5.00;;;2.03;;
5127;SDS011;2582;48.770;9.190;2022-10-23T13:17:43;3.73;;;1.90;;
5127;SDS011;2582;48.770;9.190;2022-10-23T13:22:46;2.23;;;2.03;;
5127;SDS011;2582;48.770;9.190;2022-10-23T13:25:51;3.43;;;1.83;;
5127;SDS011;2582;48.770;9.190;2022-10-23T13:28:12;4.20;;;2.20;;
5127;SDS011;2582;48.770;9.190;2022-10-23T13:30:56;3.17;;;2.10;;
5127;SDS011;2582;48.770;9.190;2022-10-23T13:33:34;3.33;;;2.10;;
5127;SDS011;2582;48.770;9.190;2022-10-23T13:36:01;2.40;;;2.20;;
5127;SDS011;2582;48.770;9.190;2022-10-23T13:41:10;4.83;;;2.80;;
5127;SDS011;2582;48.770;9.190;2022-10-23T13:43:39;5.20;;;2.60;;
5127;SDS011;2582;48.770;9.190;2022-10-23T13:46:10;5.20;;;2.50;;
5127;SDS011;2582;48.770;9.190;2022-10-23T13:48:38;5.37;;;3.30;;
5127;SDS011;2582;48.770;9.190;2022-10-23T13:51:11;6.70;;;2.90;;
5127;SDS011;2582;48.770;9.190;2022-10-23T13:53:38;8.30;;;2.40;;
5127;SDS011;2582;48.770;9.190;2022-10-23T13:56:04;6.17;;;2.50;;
5127;SDS011;2582;48.770;9.190;2022-10-23T13:58:30;7.40;;;2.60;;
5127;SDS011;2582;48.770;9.190;2022-10-23T14:00:56;12.03;;;2.60;;
5127;SDS011;2582;48.770;9.190;2022-10-23T14:03:22;6.20;;;2.20;;
5127;SDS011;2582;48.770;9.190;2022-10-23T14:05:49;5.40;;;2.73;;
5127;SDS011;2582;48.770;9.190;2022-10-23T14:08:15;2.63;;;2.43;;
5127;SDS011;2582;48.770;9.190;2022-10-23T14:10:40;4.93;;;2.73;;
5127;SDS011;2582;48.770;9.190;2022-10-23T14:13:06;5.60;;;2.80;;
5127;SDS011;2582;48.770;9.190;2022-10-23T14:15:31;6.43;;;2.57;;
5127;SDS011;2582;48.770;9.190;2022-10-23T14:17:57;4.03;;;2.20;;
5127;SDS011;2582;48.770;9.190;2022-10-23T14:20:22;6.70;;;2.40;;
5127;SDS011;2582;48.770;9.190;2022-10-23T14:22:48;4.47;;;2.50;;
5127;SDS011;2582;48.770;9.190;2022-10-23T14:25:14;4.47;;;2.70;;
5127;SDS011;2582;48.770;9.190;2022-10-23T14:27:39;3.20;;;2.90;;
5127;SDS011;2582;48.770;9.190;2022-10-23T14:30:05;6.87;;;3.10;;
5127;SDS011;2582;48.770;9.190;2022-10-23T14:32:31;7.53;;;3.00;;
5127;SDS011;2582;48.770;9.190;2022-10-23T14:34:57;5.07;;;2.90;;
5127;SDS011;2582;48.770;9.190;2022-10-23T14:37:22;12.07;;;3.77;;
5127;SDS011;2582;48.770;9.190;2022-10-23T14:39:48;9.50;;;2.63;;
5127;SDS011;2582;48.770;9.190;2022-10-23T14:42:14;5.33;;;3.40;;
5127;SDS011;2582;48.770;9.190;2022-10-23T14:44:40;10.13;;;3.20;;
5127;SDS011;2582;48.770;9.190;2022-10-23T14:47:07;6.37;;;3.77;;
5127;SDS011;2582;48.770;9.190;2022-10-23T14:49:32;5.60;;;3.37;;
5127;SDS011;2582;48.770;9.190;2022-10-23T14:51:59;8.03;;;3.23;;
5127;SDS011;2582;48.770;9.190;2022-10-23T14:54:25;10.67;;;4.13;;
5127;SDS011;2582;48.770;9.190;2022-10-23T14:56:52;6.07;;;3.30;;
5127;SDS011;2582;48.770;9.190;2022-10-23T14:59:17;8.40;;;3.00;;
5127;SDS011;2582;48.770;9.190;2022-10-23T15:01:43;7.50;;;2.93;;
5127;SDS011;2582;48.770;9.190;2022-10-23T15:04:09;7.70;;;3.57;;
5127;SDS011;2582;48.770;9.190;2022-10-23T15:06:35;6.00;;;3.10;;
5127;SDS011;2582;48.770;9.190;2022-10-23T15:09:03;8.57;;;2.83;;
5127;SDS011;2582;48.770;9.190;2022-10-23T15:11:29;8.23;;;2.80;;
5127;SDS011;2582;48.770;9.190;2022-10-23T15:13:55;10.07;;;3.40;;
5127;SDS011;2582;48.770;9.190;2022-10-23T15:16:23;7.10;;;3.60;;
5127;SDS011;2582;48.770;9.190;2022-10-23T15:18:49;5.20;;;4.37;;
5127;SDS011;2582;48.770;9.190;2022-10-23T15:21:14;9.53;;;3.80;;
5127;SDS011;2582;48.770;9.190;2022-10-23T15:23:41;8.97;;;2.80;;
5127;SDS011;2582;48.770;9.190;2022-10-23T15:26:09;6.30;;;2.88;;
5127;SDS011;2582;48.770;9.190;2022-10-23T15:28:37;5.33;;;2.50;;
5127;SDS011;2582;48.770;9.190;2022-10-23T15:31:03;11.97;;;2.30;;
5127;SDS011;2582;48.770;9.190;2022-10-23T15:33:29;5.87;;;2.83;;
5127;SDS011;2582;48.770;9.190;2022-10-23T15:35:55;12.80;;;2.90;;
5127;SDS011;2582;48.770;9.190;2022-10-23T15:38:21;8.23;;;2.83;;
5127;SDS011;2582;48.770;9.190;2022-10-23T15:40:47;4.77;;;2.23;;
5127;SDS011;2582;48.770;9.190;2022-10-23T15:43:14;8.07;;;2.73;;
5127;SDS011;2582;48.770;9.190;2022-10-23T15:45:41;11.10;;;2.90;;
5127;SDS011;2582;48.770;9.190;2022-10-23T15:48:07;12.03;;;2.33;;
5127;SDS011;2582;48.770;9.190;2022-10-23T15:50:33;7.77;;;2.20;;
5127;SDS011;2582;48.770;9.190;2022-10-23T15:53:00;8.10;;;4.20;;
5127;SDS011;2582;48.770;9.190;2022-10-23T15:55:25;6.40;;;2.77;;
5127;SDS011;2582;48.770;9.190;2022-10-23T15:57:51;7.67;;;2.40;;
5127;SDS011;2582;48.770;9.190;2022-10-23T16:00:17;4.30;;;2.43;;
5127;SDS011;2582;48.770;9.190;2022-10-23T16:02:43;6.23;;;2.37;;
5127;SDS011;2582;48.770;9.190;2022-10-23T16:05:09;9.27;;;2.63;;
5127;SDS011;2582;48.770;9.190;2022-10-23T16:07:35;7.80;;;2.97;;
5127;SDS011;2582;48.770;9.190;2022-10-23T16:10:00;5.63;;;3.10;;
5127;SDS011;2582;48.770;9.190;2022-10-23T16:12:26;5.93;;;3.10;;
5127;SDS011;2582;48.770;9.190;2022-10-23T16:14:52;5.50;;;2.90;;
5127;SDS011;2582;48.770;9.190;2022-10-23T16:17:18;9.80;;;2.90;;
5127;SDS011;2582;48.770;9.190;2022-10-23T16:19:43;10.30;;;2.50;;
5127;SDS011;2582;48.770;9.190;2022-10-23T16:22:09;7.27;;;2.87;;
5127;SDS011;2582;48.770;9.190;2022-10-23T16:24:35;6.10;;;2.40;;
5127;SDS011;2582;48.770;9.190;2022-10-23T16:27:01;4.23;;;2.63;;
5127;SDS011;2582;48.770;9.190;2022-10-23T16:29:26;2.97;;;2.10;;
5127;SDS011;2582;48.770;9.190;2022-10-23T16:31:53;6.73;;;3.10;;
5127;SDS011;2582;48.770;9.190;2022-10-23T16:34:19;2.93;;;2.33;;
5127;SDS011;2582;48.770;9.190;2022-10-23T16:36:45;4.00;;;2.00;;
5127;SDS011;2582;48.770;9.190;2022-10-23T16:39:12;3.30;;;2.07;;
5127;SDS011;2582;48.770;9.190;2022-10-23T16:41:38;6.90;;;1.93;;
5127;SDS011;2582;48.770;9.190;2022-10-23T16:44:04;7.07;;;2.73;;
5127;SDS011;2582;48.770;9.190;2022-10-23T16:46:30;5.40;;;2.40;;
5127;SDS011;2582;48.770;9.190;2022-10-23T16:48:56;4.60;;;2.07;;
5127;SDS011;2582;48.770;9.190;2022-10-23T16:51:23;5.20;;;2.30;;
5127;SDS011;2582;48.770;9.190;2022-10-23T16:53:50;3.30;;;2.67;;
5127;SDS011;2582;48.770;9.190;2022-10-23T16:56:17;3.97;;;2.60;;
5127;SDS011;2582;48.770;9.190;2022-10-23T16:58:45;6.60;;;3.80;;
5127;SDS011;2582;48.770;9.190;2022-10-23T17:01:12;9.07;;;6.23;;